Time;durP1;ratioP1;P1;durP2;ratioP2;P2;SDS_P1;SDS_P2;PMS_P1;PMS_P2;Temp;Humidity;BMP_temperature;BMP_pressure;BME280_temperature;BME280_humidity;BME280_pressure;Samples;Min_cycle;Max_cycle;Signal;HPM_P1;HPM_P2
2022/11/20 00:01:05;;;;;;;;;;;1.60;99.90;;;;;;5026361;28;19964;-68
2022/11/20 00:03:32;;;;;;;;;;;1.70;99.90;;;;;;5026266;28;19989;-68
2022/11/20 00:06:00;;;;;;;;;;;1.70;99.90;;;;;;5025920;28;19964;-68
2022/11/20 00:08:27;;;;;;;;;;;1.70;99.90;;;;;;5025554;28;19956;-69
2022/11/20 00:10:53;;;;;;;;;;;1.70;99.90;;;;;;5026153;28;19958;-69
2022/11/20 00:13:21;;;;;;;;;;;1.70;99.90;;;;;;5026075;28;19948;-69
2022/11/20 00:15:48;;;;;;;;;;;1.70;99.90;;;;;;5025958;28;19952;-69
2022/11/20 00:18:14;;;;;;;;;;;1.70;99.90;;;;;;5025971;28;20243;-68
2022/11/20 00:20:41;;;;;;;;;;;1.70;99.90;;;;;;5026222;28;19952;-68
2022/11/20 00:23:08;;;;;;;;;;;1.80;99.90;;;;;;5026029;28;19960;-68
2022/11/20 00:25:35;;;;;;;;;;;1.70;99.90;;;;;;5025734;28;19971;-68
2022/11/20 00:28:01;;;;;;;;;;;1.80;99.90;;;;;;5025659;28;19925;-69
2022/11/20 00:30:29;;;;;;;;;;;1.80;99.90;;;;;;5026015;28;19989;-69
2022/11/20 00:32:57;;;;;;;;;;;1.80;99.90;;;;;;5025882;28;19988;-69
2022/11/20 00:35:26;;;;;;;;;;;1.80;99.90;;;;;;5025502;28;19988;-68
2022/11/20 00:37:53;;;;;;;;;;;1.80;99.90;;;;;;5025402;28;19956;-69
2022/11/20 00:40:19;;;;;;;;;;;1.80;99.90;;;;;;5024692;28;19948;-69
2022/11/20 00:42:46;;;;;;;;;;;1.80;99.90;;;;;;5020719;28;19963;-69
2022/11/20 00:45:12;;;;;;;;;;;1.70;99.90;;;;;;5013512;28;19953;-69
2022/11/20 00:47:40;;;;;;;;;;;1.80;99.90;;;;;;5025187;28;19928;-68
2022/11/20 00:50:07;;;;;;;;;;;1.70;99.90;;;;;;5025280;28;19992;-68
2022/11/20 00:52:34;;;;;;;;;;;1.70;99.90;;;;;;5025354;28;20004;-69
2022/11/20 00:55:01;;;;;;;;;;;1.70;99.90;;;;;;5024752;28;20224;-69
2022/11/20 00:57:27;;;;;;;;;;;1.70;99.90;;;;;;5025365;28;19988;-69
2022/11/20 00:59:54;;;;;;;;;;;1.70;99.90;;;;;;5025363;28;19953;-68
2022/11/20 01:02:20;;;;;;;;;;;1.80;99.90;;;;;;5025237;28;19984;-69
2022/11/20 01:04:48;;;;;;;;;;;1.70;99.90;;;;;;5024631;28;20204;-69
2022/11/20 01:07:15;;;;;;;;;;;1.70;99.90;;;;;;5025079;28;19921;-69
2022/11/20 01:09:42;;;;;;;;;;;1.70;99.90;;;;;;5024998;28;20267;-68
2022/11/20 01:12:08;;;;;;;;;;;1.70;99.90;;;;;;5025293;28;19952;-69
2022/11/20 01:14:35;;;;;;;;;;;1.70;99.90;;;;;;5025092;28;20167;-69
2022/11/20 01:17:01;;;;;;;;;;;1.70;99.90;;;;;;5024712;28;19992;-68
2022/11/20 01:19:28;;;;;;;;;;;1.70;99.90;;;;;;5025080;28;19957;-68
2022/11/20 01:21:56;;;;;;;;;;;1.70;99.90;;;;;;5024949;28;20133;-68
2022/11/20 01:24:23;;;;;;;;;;;1.70;99.90;;;;;;5024954;28;19988;-68
2022/11/20 01:26:50;;;;;;;;;;;1.70;99.90;;;;;;5024601;28;19961;-69
2022/11/20 01:29:18;;;;;;;;;;;1.70;99.90;;;;;;5025032;28;19974;-69
2022/11/20 01:31:45;;;;;;;;;;;1.80;99.90;;;;;;5024936;28;19984;-69
2022/11/20 01:34:13;;;;;;;;;;;1.80;99.90;;;;;;5024435;28;20265;-68
2022/11/20 01:36:40;;;;;;;;;;;1.80;99.90;;;;;;5024154;28;20016;-68
2022/11/20 01:39:10;;;;;;;;;;;1.80;99.90;;;;;;5024740;28;20190;-69
2022/11/20 01:44:23;;;;;;;;;;;1.80;99.90;;;;;;5024501;28;20267;-69
2022/11/20 01:46:53;;;;;;;;;;;1.80;99.90;;;;;;5024344;28;19953;-69
2022/11/20 01:49:21;;;;;;;;;;;1.80;99.90;;;;;;5024551;28;19984;-69
2022/11/20 01:51:50;;;;;;;;;;;1.80;99.90;;;;;;5024303;28;20252;-70
2022/11/20 01:54:20;;;;;;;;;;;1.80;99.90;;;;;;5024446;28;19989;-68
2022/11/20 01:56:48;;;;;;;;;;;1.90;99.90;;;;;;5024403;28;19963;-69
2022/11/20 01:59:16;;;;;;;;;;;1.90;99.90;;;;;;5024063;28;19989;-68
2022/11/20 02:01:43;;;;;;;;;;;1.90;99.90;;;;;;5023996;28;19984;-69
2022/11/20 02:04:10;;;;;;;;;;;1.90;99.90;;;;;;5015631;28;19986;-68
2022/11/20 02:06:41;;;;;;;;;;;1.90;99.90;;;;;;5004220;28;19957;-69
2022/11/20 02:09:07;;;;;;;;;;;1.90;99.90;;;;;;5004907;28;19957;-68
2022/11/20 02:11:35;;;;;;;;;;;1.90;99.90;;;;;;5004757;28;19958;-68
2022/11/20 02:14:01;;;;;;;;;;;1.90;99.90;;;;;;5004326;28;19996;-69
2022/11/20 02:16:29;;;;;;;;;;;2.00;99.90;;;;;;5004282;28;20305;-69
2022/11/20 02:18:57;;;;;;;;;;;1.90;99.90;;;;;;5004255;28;20240;-69
2022/11/20 02:21:33;;;;;;;;;;;1.90;99.90;;;;;;5004614;28;19949;-68
2022/11/20 02:24:06;;;;;;;;;;;1.90;99.90;;;;;;5004308;28;19964;-68
2022/11/20 02:26:34;;;;;;;;;;;2.00;99.90;;;;;;5003874;28;19953;-69
2022/11/20 02:29:01;;;;;;;;;;;2.00;99.90;;;;;;5004029;28;19989;-69
2022/11/20 02:31:28;;;;;;;;;;;2.00;99.90;;;;;;5004499;28;20243;-69
2022/11/20 02:33:55;;;;;;;;;;;2.00;99.90;;;;;;5005239;28;19957;-69
2022/11/20 02:36:22;;;;;;;;;;;2.00;99.90;;;;;;5004528;28;20149;-68
2022/11/20 02:38:50;;;;;;;;;;;2.00;99.90;;;;;;5004374;28;19989;-69
2022/11/20 02:41:18;;;;;;;;;;;2.00;99.90;;;;;;5004139;28;19989;-69
2022/11/20 02:43:44;;;;;;;;;;;2.10;99.90;;;;;;5004263;28;20001;-69
2022/11/20 02:46:11;;;;;;;;;;;2.10;99.90;;;;;;5004091;28;19972;-69
2022/11/20 02:48:38;;;;;;;;;;;2.00;99.90;;;;;;5004345;28;20000;-68
2022/11/20 02:51:04;;;;;;;;;;;2.00;99.90;;;;;;5004423;28;19953;-68
2022/11/20 02:53:31;;;;;;;;;;;2.00;99.90;;;;;;5004312;28;19960;-69
2022/11/20 02:55:58;;;;;;;;;;;2.10;99.90;;;;;;5003901;28;19990;-69
2022/11/20 02:58:26;;;;;;;;;;;2.00;99.90;;;;;;5004219;28;19975;-68
2022/11/20 03:00:53;;;;;;;;;;;2.10;99.90;;;;;;5004129;28;19953;-68
2022/11/20 03:03:19;;;;;;;;;;;2.10;99.90;;;;;;5004174;28;19996;-68
2022/11/20 03:05:46;;;;;;;;;;;2.10;99.90;;;;;;5003644;28;20369;-69
2022/11/20 03:08:12;;;;;;;;;;;2.10;99.90;;;;;;5003899;28;19953;-68
2022/11/20 03:10:39;;;;;;;;;;;2.10;99.90;;;;;;5004109;28;19953;-69
2022/11/20 03:13:06;;;;;;;;;;;2.10;99.90;;;;;;5006399;28;19998;-69
2022/11/20 03:15:34;;;;;;;;;;;2.10;99.90;;;;;;5007446;28;19953;-69
2022/11/20 03:18:00;;;;;;;;;;;2.10;99.90;;;;;;5007709;28;19922;-69
2022/11/20 03:20:27;;;;;;;;;;;2.10;99.90;;;;;;5007718;28;19922;-69
2022/11/20 03:22:54;;;;;;;;;;;2.10;99.90;;;;;;5007518;28;20169;-69
2022/11/20 03:25:21;;;;;;;;;;;2.10;99.90;;;;;;5007283;28;19989;-68
2022/11/20 03:27:47;;;;;;;;;;;2.00;99.90;;;;;;5007528;28;19985;-68
2022/11/20 03:30:14;;;;;;;;;;;2.00;99.90;;;;;;5007519;28;19996;-68
2022/11/20 03:32:42;;;;;;;;;;;2.00;99.90;;;;;;5007521;28;19957;-69
2022/11/20 03:35:09;;;;;;;;;;;2.10;99.90;;;;;;5007016;28;20062;-68
2022/11/20 03:37:36;;;;;;;;;;;2.10;99.90;;;;;;5007253;28;20078;-69
2022/11/20 03:40:02;;;;;;;;;;;2.00;99.90;;;;;;5007339;28;19985;-69
2022/11/20 03:42:47;;;;;;;;;;;2.10;99.90;;;;;;5007255;28;19949;-69
2022/11/20 03:45:14;;;;;;;;;;;2.10;99.90;;;;;;5006955;28;19957;-69
2022/11/20 03:47:42;;;;;;;;;;;2.10;99.90;;;;;;5007111;28;19988;-69
2022/11/20 03:50:09;;;;;;;;;;;2.10;99.90;;;;;;5006895;28;19988;-69
2022/11/20 03:52:36;;;;;;;;;;;2.10;99.90;;;;;;5006912;28;20141;-69
2022/11/20 03:55:03;;;;;;;;;;;2.20;99.90;;;;;;5006635;28;19953;-69
2022/11/20 03:57:29;;;;;;;;;;;2.10;99.90;;;;;;5006862;28;19953;-68
2022/11/20 03:59:56;;;;;;;;;;;2.20;99.90;;;;;;5006969;28;19976;-68
2022/11/20 04:02:23;;;;;;;;;;;2.20;99.90;;;;;;5006798;28;19989;-69
2022/11/20 04:04:51;;;;;;;;;;;2.10;99.90;;;;;;5006633;28;20627;-68
2022/11/20 04:07:17;;;;;;;;;;;2.20;99.90;;;;;;5023339;28;20168;-69
2022/11/20 04:09:44;;;;;;;;;;;2.20;99.90;;;;;;5026435;28;19959;-69
2022/11/20 04:12:10;;;;;;;;;;;2.20;99.90;;;;;;5026488;28;19993;-69
2022/11/20 04:14:37;;;;;;;;;;;2.30;99.90;;;;;;5025900;28;19993;-68
2022/11/20 04:17:04;;;;;;;;;;;2.20;99.90;;;;;;5026110;28;19953;-69
2022/11/20 04:19:30;;;;;;;;;;;2.30;99.90;;;;;;5026209;28;19972;-69
2022/11/20 04:21:58;;;;;;;;;;;2.30;99.90;;;;;;5026191;28;20173;-69
2022/11/20 04:24:25;;;;;;;;;;;2.30;99.90;;;;;;5025273;28;19963;-69
2022/11/20 04:26:52;;;;;;;;;;;2.30;99.90;;;;;;5025830;28;19953;-70
2022/11/20 04:29:18;;;;;;;;;;;2.30;99.90;;;;;;5026013;28;19989;-68
2022/11/20 04:31:45;;;;;;;;;;;2.30;99.90;;;;;;5025713;28;20057;-68
2022/11/20 04:34:12;;;;;;;;;;;2.20;99.90;;;;;;5025861;28;19953;-68
2022/11/20 04:36:38;;;;;;;;;;;2.20;99.90;;;;;;5025376;28;19960;-69
2022/11/20 04:39:07;;;;;;;;;;;2.20;99.90;;;;;;5025904;28;19953;-69
2022/11/20 04:41:34;;;;;;;;;;;2.20;99.90;;;;;;5025948;28;19984;-68
2022/11/20 04:44:03;;;;;;;;;;;2.30;99.90;;;;;;5025702;28;19992;-69
2022/11/20 04:46:30;;;;;;;;;;;2.30;99.90;;;;;;5025540;28;19959;-68
2022/11/20 04:48:57;;;;;;;;;;;2.30;99.90;;;;;;5025740;28;19949;-68
2022/11/20 04:51:24;;;;;;;;;;;2.30;99.90;;;;;;5025363;28;20288;-69
2022/11/20 04:53:50;;;;;;;;;;;2.30;99.90;;;;;;5025632;28;19988;-68
2022/11/20 04:56:18;;;;;;;;;;;2.20;99.90;;;;;;5025290;28;20000;-69
2022/11/20 04:58:45;;;;;;;;;;;2.30;99.90;;;;;;5025456;28;20264;-69
2022/11/20 05:01:12;;;;;;;;;;;2.30;99.90;;;;;;5025178;28;19993;-68
2022/11/20 05:03:40;;;;;;;;;;;2.30;99.90;;;;;;5025207;28;19921;-69
2022/11/20 05:06:07;;;;;;;;;;;2.40;99.90;;;;;;5024921;28;19980;-68
2022/11/20 05:08:34;;;;;;;;;;;2.30;99.90;;;;;;5025372;28;19949;-68
2022/11/20 05:11:02;;;;;;;;;;;2.40;99.90;;;;;;5025205;28;19988;-69
2022/11/20 05:13:30;;;;;;;;;;;2.40;99.90;;;;;;5025322;28;19984;-68
2022/11/20 05:16:01;;;;;;;;;;;2.40;99.90;;;;;;5024543;28;20260;-69
2022/11/20 05:18:28;;;;;;;;;;;2.40;99.90;;;;;;5025138;28;19953;-68
2022/11/20 05:20:55;;;;;;;;;;;2.40;99.90;;;;;;5024804;28;19960;-69
2022/11/20 05:23:22;;;;;;;;;;;2.40;99.90;;;;;;5024727;28;20004;-69
2022/11/20 05:25:48;;;;;;;;;;;2.40;99.90;;;;;;5024428;28;19964;-69
2022/11/20 05:28:15;;;;;;;;;;;2.40;99.90;;;;;;5024958;28;19956;-68
2022/11/20 05:30:43;;;;;;;;;;;2.30;99.90;;;;;;5040348;23;19959;-70
2022/11/20 05:33:10;;;;;;;;;;;2.30;99.90;;;;;;5083218;28;19991;-69
2022/11/20 05:35:36;;;;;;;;;;;2.30;99.90;;;;;;5083328;28;19987;-71
2022/11/20 05:38:03;;;;;;;;;;;2.30;99.90;;;;;;5084369;28;19952;-70
2022/11/20 05:40:29;;;;;;;;;;;2.30;99.90;;;;;;5084176;28;19992;-71
2022/11/20 05:42:56;;;;;;;;;;;2.30;99.90;;;;;;5104635;28;19951;-71
2022/11/20 05:45:23;;;;;;;;;;;2.30;99.90;;;;;;5104200;28;19983;-71
2022/11/20 05:47:51;;;;;;;;;;;2.30;99.90;;;;;;5104242;28;19959;-71
2022/11/20 05:50:17;;;;;;;;;;;2.40;99.90;;;;;;5104323;28;19991;-72
2022/11/20 05:52:45;;;;;;;;;;;2.30;99.90;;;;;;5104261;28;19952;-70
2022/11/20 05:55:11;;;;;;;;;;;2.30;99.90;;;;;;5103580;28;20230;-71
2022/11/20 05:57:38;;;;;;;;;;;2.30;99.90;;;;;;5097489;28;19984;-71
2022/11/20 06:00:05;;;;;;;;;;;2.40;99.90;;;;;;5083912;28;19955;-71
2022/11/20 06:02:35;;;;;;;;;;;2.40;99.90;;;;;;5083470;28;20267;-71
2022/11/20 06:05:04;;;;;;;;;;;2.40;99.90;;;;;;5082864;28;19995;-70
2022/11/20 06:07:31;;;;;;;;;;;2.40;99.90;;;;;;5083931;28;19959;-71
2022/11/20 06:09:57;;;;;;;;;;;2.40;99.90;;;;;;5083720;28;19992;-70
2022/11/20 06:12:24;;;;;;;;;;;2.40;99.90;;;;;;5083945;28;19963;-71
2022/11/20 06:14:56;;;;;;;;;;;2.40;99.90;;;;;;5082871;28;20163;-70
2022/11/20 06:17:23;;;;;;;;;;;2.40;99.90;;;;;;5088016;28;19983;-71
2022/11/20 06:19:50;;;;;;;;;;;2.30;99.90;;;;;;5103972;28;19983;-70
2022/11/20 06:22:18;;;;;;;;;;;2.30;99.90;;;;;;5104105;28;19986;-70
2022/11/20 06:24:44;;;;;;;;;;;2.40;99.90;;;;;;5103675;28;19944;-70
2022/11/20 06:27:11;;;;;;;;;;;2.40;99.90;;;;;;5101161;28;19928;-71
2022/11/20 06:29:37;;;;;;;;;;;2.40;99.90;;;;;;5083797;28;19987;-71
2022/11/20 06:32:04;;;;;;;;;;;2.40;99.90;;;;;;5083135;28;19987;-72
2022/11/20 06:34:31;;;;;;;;;;;2.40;99.90;;;;;;5083479;28;20321;-70
2022/11/20 06:36:57;;;;;;;;;;;2.50;99.90;;;;;;5084018;28;19959;-71
2022/11/20 06:39:27;;;;;;;;;;;2.50;99.90;;;;;;5103268;28;20118;-70
2022/11/20 06:41:54;;;;;;;;;;;2.60;99.90;;;;;;5103948;28;19987;-71
2022/11/20 06:44:21;;;;;;;;;;;2.70;99.90;;;;;;5101281;28;19999;-70
2022/11/20 06:46:47;;;;;;;;;;;2.60;99.90;;;;;;5085830;28;20008;-71
2022/11/20 06:49:15;;;;;;;;;;;2.70;99.90;;;;;;5086344;28;20000;-70
2022/11/20 06:51:41;;;;;;;;;;;2.60;99.90;;;;;;5106702;28;19987;-71
2022/11/20 06:54:08;;;;;;;;;;;2.60;99.90;;;;;;5107711;28;19970;-70
2022/11/20 06:56:36;;;;;;;;;;;2.70;99.90;;;;;;5107241;28;19987;-70
2022/11/20 06:59:04;;;;;;;;;;;2.70;99.90;;;;;;5096103;28;20000;-70
2022/11/20 07:01:31;;;;;;;;;;;2.80;99.90;;;;;;5107077;28;19947;-70
2022/11/20 07:03:57;;;;;;;;;;;2.80;99.90;;;;;;5091626;28;19959;-70
2022/11/20 07:06:24;;;;;;;;;;;2.90;99.90;;;;;;5087118;28;20023;-70
2022/11/20 07:08:51;;;;;;;;;;;2.90;99.90;;;;;;5107602;28;20162;-69
2022/11/20 07:11:18;;;;;;;;;;;3.00;99.90;;;;;;5105946;28;20006;-70
2022/11/20 07:13:45;;;;;;;;;;;3.20;99.90;;;;;;5107169;28;19983;-70
2022/11/20 07:16:12;;;;;;;;;;;3.20;99.90;;;;;;5101280;28;19983;-70
2022/11/20 07:18:39;;;;;;;;;;;3.40;99.90;;;;;;5106899;28;19951;-70
2022/11/20 07:21:06;;;;;;;;;;;3.50;99.90;;;;;;5106836;28;19987;-70
2022/11/20 07:23:33;;;;;;;;;;;3.60;99.90;;;;;;5107201;28;19919;-70
2022/11/20 07:26:03;;;;;;;;;;;3.70;99.90;;;;;;5106547;28;19958;-70
2022/11/20 07:28:30;;;;;;;;;;;3.90;99.90;;;;;;5107067;28;19954;-71
2022/11/20 07:30:58;;;;;;;;;;;3.90;99.90;;;;;;5090719;28;20266;-70
2022/11/20 07:33:24;;;;;;;;;;;4.00;99.90;;;;;;5091350;28;20262;-70
2022/11/20 07:35:51;;;;;;;;;;;4.10;99.90;;;;;;5087361;28;19987;-70
2022/11/20 07:38:17;;;;;;;;;;;4.10;99.90;;;;;;5089809;28;20185;-70
2022/11/20 07:40:44;;;;;;;;;;;4.10;99.90;;;;;;5106568;28;20186;-70
2022/11/20 07:43:11;;;;;;;;;;;4.20;99.90;;;;;;5106793;28;19987;-70
2022/11/20 07:45:37;;;;;;;;;;;4.20;99.90;;;;;;5106336;28;19947;-70
2022/11/20 07:48:05;;;;;;;;;;;4.30;99.90;;;;;;5106842;28;19998;-70
2022/11/20 07:50:32;;;;;;;;;;;4.30;99.90;;;;;;5102385;28;19947;-70
2022/11/20 07:53:03;;;;;;;;;;;4.30;99.90;;;;;;5086362;28;19983;-70
2022/11/20 07:55:30;;;;;;;;;;;4.30;99.90;;;;;;5095356;28;20211;-70
2022/11/20 07:57:57;;;;;;;;;;;4.30;99.90;;;;;;5105717;28;20160;-70
2022/11/20 08:00:23;;;;;;;;;;;4.40;99.90;;;;;;5106328;28;19927;-70
2022/11/20 08:02:50;;;;;;;;;;;4.40;99.90;;;;;;5106431;28;19952;-70
2022/11/20 08:05:18;;;;;;;;;;;4.30;99.90;;;;;;5085541;28;20160;-70
2022/11/20 08:07:45;;;;;;;;;;;4.40;99.90;;;;;;5086076;28;19971;-70
2022/11/20 08:10:13;;;;;;;;;;;4.30;99.90;;;;;;5094521;28;20195;-69
2022/11/20 08:15:28;;;;;;;;;;;4.30;99.90;;;;;;5085594;28;20062;-70
2022/11/20 08:17:59;;;;;;;;;;;4.30;99.90;;;;;;5085926;28;20170;-70
2022/11/20 08:20:27;;;;;;;;;;;4.30;99.90;;;;;;5085885;28;19959;-70
2022/11/20 08:22:58;;;;;;;;;;;4.40;99.90;;;;;;5089883;28;19958;-70
2022/11/20 08:25:24;;;;;;;;;;;4.40;99.90;;;;;;5105535;28;19920;-70
2022/11/20 08:27:51;;;;;;;;;;;4.50;99.90;;;;;;5105984;28;19988;-70
2022/11/20 08:30:18;;;;;;;;;;;4.50;99.90;;;;;;5105982;28;20152;-70
2022/11/20 08:32:44;;;;;;;;;;;4.50;99.90;;;;;;5105522;28;19962;-70
2022/11/20 08:35:11;;;;;;;;;;;4.60;99.90;;;;;;5105583;28;19995;-70
2022/11/20 08:37:41;;;;;;;;;;;4.60;99.90;;;;;;5105421;28;20174;-71
2022/11/20 08:40:09;;;;;;;;;;;4.60;99.90;;;;;;5105681;28;19965;-70
2022/11/20 08:42:35;;;;;;;;;;;4.70;99.90;;;;;;5105654;28;20160;-69
2022/11/20 08:45:02;;;;;;;;;;;4.70;99.90;;;;;;5105337;28;19959;-70
2022/11/20 08:47:29;;;;;;;;;;;4.70;99.90;;;;;;5105658;28;20010;-71
2022/11/20 08:49:55;;;;;;;;;;;4.80;99.90;;;;;;5103915;28;19954;-70
2022/11/20 08:52:22;;;;;;;;;;;4.80;99.90;;;;;;5105112;28;19954;-70
2022/11/20 08:54:50;;;;;;;;;;;4.80;99.90;;;;;;5105155;28;19992;-71
2022/11/20 08:57:17;;;;;;;;;;;4.80;99.90;;;;;;5105452;28;20157;-70
2022/11/20 08:59:43;;;;;;;;;;;4.80;99.90;;;;;;5105025;28;19951;-70
2022/11/20 09:02:10;;;;;;;;;;;4.80;99.90;;;;;;5105372;28;19990;-70
2022/11/20 09:04:36;;;;;;;;;;;4.80;99.90;;;;;;5084743;28;19966;-71
2022/11/20 09:07:03;;;;;;;;;;;4.80;99.90;;;;;;5094693;28;20256;-70
2022/11/20 09:09:30;;;;;;;;;;;4.80;99.90;;;;;;5104859;28;19958;-70
2022/11/20 09:11:57;;;;;;;;;;;4.90;99.90;;;;;;5084832;28;19991;-70
2022/11/20 09:14:28;;;;;;;;;;;4.90;99.90;;;;;;5085058;28;20145;-70
2022/11/20 09:16:55;;;;;;;;;;;4.90;99.90;;;;;;5104874;28;19923;-70
2022/11/20 09:19:22;;;;;;;;;;;4.80;99.90;;;;;;5105072;28;20167;-69
2022/11/20 09:21:48;;;;;;;;;;;4.90;99.90;;;;;;5104691;28;19951;-70
2022/11/20 09:24:15;;;;;;;;;;;4.90;99.90;;;;;;5104920;28;20061;-70
2022/11/20 09:26:41;;;;;;;;;;;4.80;99.90;;;;;;5104607;28;19983;-70
2022/11/20 09:29:09;;;;;;;;;;;4.90;99.90;;;;;;5104476;28;19951;-71
2022/11/20 09:31:36;;;;;;;;;;;4.90;99.90;;;;;;5104482;28;19947;-69
2022/11/20 09:34:03;;;;;;;;;;;5.00;99.90;;;;;;5097374;28;19958;-70
2022/11/20 09:36:29;;;;;;;;;;;5.00;99.90;;;;;;5102106;28;20158;-70
2022/11/20 09:38:56;;;;;;;;;;;5.00;99.90;;;;;;5104355;28;19987;-70
2022/11/20 09:41:37;;;;;;;;;;;5.10;99.90;;;;;;5104463;28;19920;-70
2022/11/20 09:44:07;;;;;;;;;;;5.00;99.90;;;;;;5084302;28;19959;-70
2022/11/20 09:46:39;;;;;;;;;;;5.10;99.90;;;;;;5083708;28;20355;-70
2022/11/20 09:49:16;;;;;;;;;;;5.10;99.90;;;;;;5084323;28;20018;-70
2022/11/20 09:51:48;;;;;;;;;;;5.10;99.90;;;;;;5092889;28;19951;-70
2022/11/20 09:54:16;;;;;;;;;;;5.10;99.90;;;;;;5102828;28;20207;-70
2022/11/20 09:56:44;;;;;;;;;;;5.10;99.90;;;;;;5103852;28;19948;-70
2022/11/20 09:59:16;;;;;;;;;;;5.10;99.90;;;;;;5104100;28;19961;-69
2022/11/20 10:01:44;;;;;;;;;;;5.10;99.90;;;;;;5104189;28;19979;-70
2022/11/20 10:04:14;;;;;;;;;;;5.10;99.90;;;;;;5104092;28;19979;-70
2022/11/20 10:06:42;;;;;;;;;;;5.20;99.90;;;;;;5086591;28;19958;-70
2022/11/20 10:09:17;;;;;;;;;;;5.20;99.90;;;;;;5103617;28;19983;-70
2022/11/20 10:11:49;;;;;;;;;;;5.20;99.90;;;;;;5103911;28;20166;-70
2022/11/20 10:14:25;;;;;;;;;;;5.10;99.90;;;;;;5103477;28;19983;-70
2022/11/20 10:16:58;;;;;;;;;;;5.10;99.90;;;;;;5103473;28;21384;-69
2022/11/20 10:19:28;;;;;;;;;;;5.20;99.90;;;;;;5094312;28;19983;-70
2022/11/20 10:21:58;;;;;;;;;;;5.20;99.90;;;;;;5095689;28;19959;-70
2022/11/20 10:24:31;;;;;;;;;;;5.20;99.90;;;;;;5103480;28;20287;-69
2022/11/20 10:27:07;;;;;;;;;;;5.20;99.90;;;;;;5103289;28;19987;-68
2022/11/20 10:29:34;;;;;;;;;;;5.20;99.90;;;;;;5103616;28;19987;-70
2022/11/20 10:32:03;;;;;;;;;;;5.30;99.90;;;;;;5103380;28;19923;-69
2022/11/20 10:34:32;;;;;;;;;;;5.20;99.90;;;;;;5103535;28;19991;-70
2022/11/20 10:37:03;;;;;;;;;;;5.20;99.90;;;;;;5098582;28;19927;-69
2022/11/20 10:39:34;;;;;;;;;;;5.30;99.90;;;;;;5083235;28;19928;-69
2022/11/20 10:42:01;;;;;;;;;;;5.20;99.90;;;;;;5095898;28;19951;-69
2022/11/20 10:47:15;;;;;;;;;;;5.30;99.90;;;;;;5103288;28;19970;-70
2022/11/20 10:49:43;;;;;;;;;;;5.30;99.90;;;;;;5103465;28;20004;-70
2022/11/20 10:52:12;;;;;;;;;;;5.30;99.90;;;;;;5103495;28;20150;-69
2022/11/20 10:54:41;;;;;;;;;;;5.30;99.90;;;;;;5103042;28;19955;-69
2022/11/20 10:57:14;;;;;;;;;;;5.40;99.90;;;;;;5103323;28;20255;-70
2022/11/20 10:59:52;;;;;;;;;;;5.40;99.90;;;;;;5103239;28;19991;-69
2022/11/20 11:02:21;;;;;;;;;;;5.40;99.90;;;;;;5103573;28;19927;-69
2022/11/20 11:04:48;;;;;;;;;;;5.40;99.90;;;;;;5102682;28;19920;-69
2022/11/20 11:07:17;;;;;;;;;;;5.50;99.90;;;;;;5103202;28;19921;-68
2022/11/20 11:09:45;;;;;;;;;;;5.50;99.90;;;;;;5103402;28;19991;-69
2022/11/20 11:12:12;;;;;;;;;;;5.50;99.90;;;;;;5103207;28;20168;-69
2022/11/20 11:14:46;;;;;;;;;;;5.50;99.90;;;;;;5103121;28;19927;-69
2022/11/20 11:17:27;;;;;;;;;;;5.60;99.90;;;;;;5103409;28;19987;-70
2022/11/20 11:20:00;;;;;;;;;;;5.70;99.90;;;;;;5098038;28;19920;-69
2022/11/20 11:22:28;;;;;;;;;;;5.70;99.90;;;;;;5082895;28;20294;-70
2022/11/20 11:24:55;;;;;;;;;;;5.80;99.90;;;;;;5082543;28;19956;-69
2022/11/20 11:27:22;;;;;;;;;;;5.80;99.90;;;;;;5082758;28;20254;-69
2022/11/20 11:29:48;;;;;;;;;;;5.70;99.90;;;;;;5083113;28;19920;-69
2022/11/20 11:32:20;;;;;;;;;;;5.90;99.90;;;;;;5081731;28;19975;-69
2022/11/20 11:35:00;;;;;;;;;;;5.90;99.90;;;;;;5090458;28;20107;-69
2022/11/20 11:37:29;;;;;;;;;;;5.90;99.90;;;;;;5102513;28;19920;-69
2022/11/20 11:39:56;;;;;;;;;;;5.90;99.90;;;;;;5106566;28;19992;-69
2022/11/20 11:42:23;;;;;;;;;;;5.90;99.90;;;;;;5106875;28;19927;-69
2022/11/20 11:47:46;;;;;;;;;;;6.00;99.90;;;;;;5049946;28;19920;-69
2022/11/20 11:50:19;;;;;;;;;;;5.90;99.90;;;;;;5086481;28;19959;-69
2022/11/20 11:52:47;;;;;;;;;;;5.90;99.90;;;;;;5099249;28;19920;-69
2022/11/20 11:55:15;;;;;;;;;;;5.80;99.90;;;;;;5106302;28;19986;-68
2022/11/20 11:57:45;;;;;;;;;;;5.80;99.90;;;;;;5106596;28;20120;-69
2022/11/20 12:00:14;;;;;;;;;;;5.80;99.90;;;;;;5106649;28;19956;-69
2022/11/20 12:02:49;;;;;;;;;;;5.80;99.90;;;;;;5106286;28;19987;-69
2022/11/20 12:05:20;;;;;;;;;;;5.80;99.90;;;;;;5106090;28;19983;-68
2022/11/20 12:07:48;;;;;;;;;;;5.80;99.90;;;;;;5106056;28;19956;-68
2022/11/20 12:10:17;;;;;;;;;;;5.80;99.90;;;;;;5105862;28;19942;-72
2022/11/20 12:12:46;;;;;;;;;;;5.70;99.90;;;;;;5106253;28;20082;-69
2022/11/20 12:15:16;;;;;;;;;;;5.60;99.90;;;;;;5105889;28;19920;-69
2022/11/20 12:17:43;;;;;;;;;;;5.60;99.90;;;;;;5106348;28;19983;-70
2022/11/20 12:20:13;;;;;;;;;;;5.60;99.90;;;;;;5106107;28;20180;-70
2022/11/20 12:22:45;;;;;;;;;;;5.60;99.90;;;;;;5105570;28;19955;-71
2022/11/20 12:25:15;;;;;;;;;;;5.60;99.90;;;;;;5105733;28;19927;-70
2022/11/20 12:28:04;;;;;;;;;;;5.60;99.90;;;;;;5100943;28;20259;-70
2022/11/20 12:30:33;;;;;;;;;;;5.60;99.90;;;;;;5097370;28;19960;-69
2022/11/20 12:33:07;;;;;;;;;;;5.60;99.90;;;;;;5104360;28;19996;-69
2022/11/20 12:35:39;;;;;;;;;;;5.60;99.90;;;;;;5105620;28;19995;-69
2022/11/20 12:38:21;;;;;;;;;;;5.60;99.90;;;;;;5104712;28;20279;-69
2022/11/20 12:40:51;;;;;;;;;;;5.60;99.90;;;;;;5085263;28;20259;-69
2022/11/20 12:46:11;;;;;;;;;;;5.70;99.90;;;;;;5105254;28;19954;-70
2022/11/20 12:48:56;;;;;;;;;;;5.80;99.90;;;;;;5106218;28;20255;-70
2022/11/20 12:51:33;;;;;;;;;;;5.80;99.90;;;;;;5104855;28;19951;-70
2022/11/20 12:54:09;;;;;;;;;;;5.80;99.90;;;;;;5105570;28;19983;-71
2022/11/20 12:56:40;;;;;;;;;;;5.80;99.90;;;;;;5105286;28;19947;-70
2022/11/20 12:59:20;;;;;;;;;;;5.80;99.90;;;;;;5093241;28;19959;-70
2022/11/20 13:01:50;;;;;;;;;;;5.80;99.90;;;;;;5092699;28;19948;-69
2022/11/20 13:04:23;;;;;;;;;;;5.80;99.90;;;;;;5105256;28;20162;-69
2022/11/20 13:06:50;;;;;;;;;;;5.80;99.90;;;;;;5104725;28;19979;-69
2022/11/20 13:09:21;;;;;;;;;;;5.80;99.90;;;;;;5105175;28;20165;-70
2022/11/20 13:11:49;;;;;;;;;;;5.80;99.90;;;;;;5105096;28;19926;-70
2022/11/20 13:14:25;;;;;;;;;;;5.80;99.90;;;;;;5105086;28;20019;-69
2022/11/20 13:16:59;;;;;;;;;;;5.80;99.90;;;;;;5103975;28;19920;-70
2022/11/20 13:19:26;;;;;;;;;;;5.80;99.90;;;;;;5105088;28;20160;-70
2022/11/20 13:21:53;;;;;;;;;;;5.80;99.90;;;;;;5104760;28;19920;-69
2022/11/20 13:24:29;;;;;;;;;;;5.90;99.90;;;;;;5104903;28;19920;-69
2022/11/20 13:27:21;;;;;;;;;;;5.90;99.90;;;;;;5104800;28;19981;-70
2022/11/20 13:29:48;;;;;;;;;;;5.90;99.90;;;;;;5083711;28;19920;-69
2022/11/20 13:32:16;;;;;;;;;;;5.90;99.90;;;;;;5104520;28;19983;-70
2022/11/20 13:34:52;;;;;;;;;;;5.90;99.90;;;;;;5104394;28;19958;-69
2022/11/20 13:37:25;;;;;;;;;;;5.90;99.90;;;;;;5104758;28;19991;-70
2022/11/20 13:39:53;;;;;;;;;;;5.90;99.90;;;;;;5104610;28;19991;-70
2022/11/20 13:42:23;;;;;;;;;;;5.90;99.90;;;;;;5104427;28;19985;-69
2022/11/20 13:44:52;;;;;;;;;;;5.90;99.90;;;;;;5083623;28;20267;-70
2022/11/20 13:47:21;;;;;;;;;;;5.90;99.90;;;;;;5084057;28;19921;-70
2022/11/20 13:49:49;;;;;;;;;;;5.90;99.90;;;;;;5083680;28;19987;-71
2022/11/20 13:52:30;;;;;;;;;;;5.80;99.90;;;;;;5083975;28;19925;-70
2022/11/20 13:55:03;;;;;;;;;;;5.90;99.90;;;;;;5083892;28;19987;-70
2022/11/20 13:57:38;;;;;;;;;;;5.90;99.90;;;;;;5102640;28;20255;-70
2022/11/20 14:00:11;;;;;;;;;;;5.80;99.90;;;;;;5083413;28;19956;-70
2022/11/20 14:02:39;;;;;;;;;;;5.70;99.90;;;;;;5082706;28;20262;-70
2022/11/20 14:05:06;;;;;;;;;;;5.70;99.90;;;;;;5102072;28;20227;-69
2022/11/20 14:07:35;;;;;;;;;;;5.70;99.90;;;;;;5103580;28;19991;-71
2022/11/20 14:10:04;;;;;;;;;;;5.70;99.90;;;;;;5103779;28;19987;-70
2022/11/20 14:12:31;;;;;;;;;;;5.70;99.90;;;;;;5103826;28;19983;-69
2022/11/20 14:14:58;;;;;;;;;;;5.70;99.90;;;;;;5102962;28;19958;-70
2022/11/20 14:17:30;;;;;;;;;;;5.70;99.90;;;;;;5102379;28;20503;-69
2022/11/20 14:19:59;;;;;;;;;;;5.70;99.90;;;;;;5103711;28;19959;-69
2022/11/20 14:22:26;;;;;;;;;;;5.70;99.90;;;;;;5102620;28;20068;-69
2022/11/20 14:25:02;;;;;;;;;;;5.70;99.90;;;;;;5101857;28;20219;-70
2022/11/20 14:27:33;;;;;;;;;;;5.70;99.90;;;;;;5083244;28;19920;-70
2022/11/20 14:30:01;;;;;;;;;;;5.40;99.90;;;;;;5083617;28;19927;-70
2022/11/20 14:32:30;;;;;;;;;;;5.30;99.90;;;;;;5082864;28;20349;-72
2022/11/20 14:34:59;;;;;;;;;;;5.20;99.90;;;;;;5083530;28;19951;-69
2022/11/20 14:37:28;;;;;;;;;;;5.10;99.90;;;;;;5083403;28;19988;-70
2022/11/20 14:39:55;;;;;;;;;;;5.00;99.90;;;;;;5083343;28;19992;-70
2022/11/20 14:42:24;;;;;;;;;;;5.00;99.90;;;;;;5083448;28;19995;-71
2022/11/20 14:44:53;;;;;;;;;;;5.00;99.90;;;;;;5083270;28;19927;-71
2022/11/20 14:47:21;;;;;;;;;;;5.00;99.90;;;;;;5096156;28;19988;-71
2022/11/20 14:49:48;;;;;;;;;;;5.00;99.90;;;;;;5102642;28;19926;-70
2022/11/20 14:52:16;;;;;;;;;;;5.00;99.90;;;;;;5102920;28;19991;-68